Terminal Aerodrome Forecast
Issued by NWS

Home | Current Version | Previous Version | Text Only | Print | Product List | Glossary On
Versions: 1 2 3 4 5 6 7 8 9 10 11 12 13 14 15 16 17 18 19 20
000
FTUS42 KTAE 060524
TAFECP
TAF
KECP 060524Z 0606/0706 20004KT 3SM SHRA VCTS OVC007CB
     FM061400 24012G18KT P6SM BKN015
     FM061700 25014G20KT P6SM SCT020
     FM070000 31006KT P6SM BKN015=

USA.gov is the U.S. government's official web portal to all federal, state and local government web resources and services.